createdAt,value
2017-08-02T00:00:04.616Z,807.33
2017-08-02T00:00:09.017Z,807.32
2017-08-02T00:00:13.505Z,807.29
2017-08-02T00:00:17.984Z,807.31
2017-08-02T00:00:22.444Z,807.31
2017-08-02T00:00:26.665Z,807.32
2017-08-02T00:00:31.122Z,807.32
2017-08-02T00:00:35.481Z,807.34
2017-08-02T00:00:39.840Z,807.29
2017-08-02T00:00:44.305Z,807.33
2017-08-02T00:00:48.642Z,807.33
2017-08-02T00:00:52.879Z,807.33
2017-08-02T00:00:57.246Z,807.32
2017-08-02T00:01:01.818Z,807.37
2017-08-02T00:01:06.285Z,807.36
2017-08-02T00:01:10.757Z,807.31
2017-08-02T00:01:15.215Z,807.36
2017-08-02T00:01:19.690Z,807.36
2017-08-02T00:01:24.155Z,807.38
2017-08-02T00:01:28.634Z,807.37
2017-08-02T00:01:33.100Z,807.38
2017-08-02T00:01:37.317Z,807.41
2017-08-02T00:01:41.778Z,807.34
2017-08-02T00:01:46.125Z,807.35
2017-08-02T00:01:50.379Z,807.35
2017-08-02T00:01:54.855Z,807.38
2017-08-02T00:01:59.207Z,807.4
2017-08-02T00:02:03.425Z,807.39
2017-08-02T00:02:07.891Z,807.43
2017-08-02T00:02:12.255Z,807.39
2017-08-02T00:02:16.730Z,807.4
2017-08-02T00:02:21.184Z,807.42
2017-08-02T00:02:25.640Z,807.39
2017-08-02T00:02:30.121Z,807.4
2017-08-02T00:02:34.371Z,807.45
2017-08-02T00:02:38.730Z,807.44
2017-08-02T00:02:43.089Z,807.43
2017-08-02T00:02:47.551Z,807.42
2017-08-02T00:02:51.896Z,807.42
2017-08-02T00:02:56.131Z,807.43
2017-08-02T00:03:00.486Z,807.41
2017-08-02T00:03:05.011Z,807.48
2017-08-02T00:03:09.360Z,807.44
2017-08-02T00:03:13.710Z,807.45
2017-08-02T00:03:18.055Z,807.44
2017-08-02T00:03:22.394Z,807.46
2017-08-02T00:03:26.503Z,807.46
2017-08-02T00:03:31.002Z,807.49
2017-08-02T00:03:35.476Z,807.44
2017-08-02T00:03:39.840Z,807.46
2017-08-02T00:03:44.080Z,807.48
2017-08-02T00:03:48.565Z,807.46
2017-08-02T00:03:53.034Z,807.49
2017-08-02T00:03:57.508Z,807.46
2017-08-02T00:04:01.874Z,807.46
2017-08-02T00:04:06.108Z,807.51
2017-08-02T00:04:10.346Z,807.49
2017-08-02T00:04:14.811Z,807.51
2017-08-02T00:04:19.158Z,807.51
2017-08-02T00:04:23.504Z,807.5
2017-08-02T00:04:27.972Z,807.52
2017-08-02T00:04:32.424Z,807.5
2017-08-02T00:04:36.770Z,807.43
2017-08-02T00:04:41.125Z,807.49
2017-08-02T00:04:45.497Z,807.51
2017-08-02T00:04:49.860Z,807.49
2017-08-02T00:04:54.201Z,807.51
2017-08-02T00:04:58.663Z,807.54
2017-08-02T00:05:02.885Z,807.5
2017-08-02T00:05:07.103Z,807.51
2017-08-02T00:05:11.464Z,807.57
2017-08-02T00:05:15.582Z,807.56
2017-08-02T00:05:20.037Z,807.53
2017-08-02T00:05:24.495Z,807.53
2017-08-02T00:05:28.851Z,807.51
2017-08-02T00:05:33.197Z,807.56
2017-08-02T00:05:37.538Z,807.52
2017-08-02T00:05:41.882Z,807.53
2017-08-02T00:05:46.232Z,807.54
2017-08-02T00:05:50.691Z,807.55
2017-08-02T00:05:54.931Z,807.57
2017-08-02T00:05:59.296Z,807.56
2017-08-02T00:06:03.420Z,807.6
2017-08-02T00:06:07.650Z,807.57
2017-08-02T00:06:12.006Z,807.57
2017-08-02T00:06:16.116Z,807.62
2017-08-02T00:06:20.460Z,807.57
2017-08-02T00:06:24.926Z,807.57
2017-08-02T00:06:29.275Z,807.54
2017-08-02T00:06:33.762Z,807.63
2017-08-02T00:06:38.230Z,807.57
2017-08-02T00:06:42.574Z,807.56
2017-08-02T00:06:46.928Z,807.58
2017-08-02T00:06:51.417Z,807.54
2017-08-02T00:06:55.883Z,807.62
2017-08-02T00:07:00.345Z,807.57
2017-08-02T00:07:04.635Z,807.58
2017-08-02T00:07:09.111Z,807.6
2017-08-02T00:07:13.584Z,807.59
2017-08-02T00:07:17.925Z,807.58
2017-08-02T00:07:22.395Z,807.6
2017-08-02T00:07:26.760Z,807.63
2017-08-02T00:07:31.215Z,807.61
2017-08-02T00:07:35.445Z,807.61
2017-08-02T00:07:39.944Z,807.62
2017-08-02T00:07:44.442Z,807.61
2017-08-02T00:07:48.895Z,807.55
2017-08-02T00:07:53.233Z,807.64
2017-08-02T00:07:57.692Z,807.59
2017-08-02T00:08:02.294Z,807.52
2017-08-02T00:08:06.642Z,807.61
2017-08-02T00:08:10.853Z,807.6
2017-08-02T00:08:15.083Z,807.62
2017-08-02T00:08:19.429Z,807.55
2017-08-02T00:08:23.908Z,807.62
2017-08-02T00:08:28.263Z,807.59
2017-08-02T00:08:32.617Z,807.63
2017-08-02T00:08:36.851Z,807.61
2017-08-02T00:08:41.323Z,807.62
2017-08-02T00:08:45.662Z,807.61
2017-08-02T00:08:50.009Z,807.62
2017-08-02T00:08:54.477Z,807.58
2017-08-02T00:08:58.821Z,807.62
2017-08-02T00:09:03.329Z,807.61
2017-08-02T00:09:07.563Z,807.58
2017-08-02T00:09:11.905Z,807.63
2017-08-02T00:09:16.359Z,807.64
2017-08-02T00:09:20.717Z,807.63
2017-08-02T00:09:25.068Z,807.64
2017-08-02T00:09:29.529Z,807.58
2017-08-02T00:09:33.864Z,807.64
2017-08-02T00:09:38.322Z,807.64
2017-08-02T00:09:42.775Z,807.67
2017-08-02T00:09:47.249Z,807.67
2017-08-02T00:09:51.594Z,807.65
2017-08-02T00:09:56.067Z,807.71
2017-08-02T00:10:00.564Z,807.67
2017-08-02T00:10:05.008Z,807.66
2017-08-02T00:10:09.234Z,807.67
2017-08-02T00:10:13.711Z,807.68
2017-08-02T00:10:18.222Z,807.67
2017-08-02T00:10:22.671Z,807.63
2017-08-02T00:10:27.027Z,807.67
2017-08-02T00:10:31.377Z,807.67
2017-08-02T00:10:35.750Z,807.65
2017-08-02T00:10:40.097Z,807.66
2017-08-02T00:10:44.568Z,807.68
2017-08-02T00:10:49.030Z,807.69
2017-08-02T00:10:53.482Z,807.68
2017-08-02T00:10:57.956Z,807.7
2017-08-02T00:11:02.500Z,807.68
2017-08-02T00:11:06.984Z,807.71
2017-08-02T00:11:11.219Z,807.71
2017-08-02T00:11:15.681Z,807.69
2017-08-02T00:11:20.049Z,807.73
2017-08-02T00:11:24.527Z,807.72
2017-08-02T00:11:28.875Z,807.73
2017-08-02T00:11:33.330Z,807.7
2017-08-02T00:11:37.801Z,807.74
2017-08-02T00:11:42.264Z,807.74
2017-08-02T00:11:46.739Z,807.73
2017-08-02T00:11:50.967Z,807.69
2017-08-02T00:11:55.431Z,807.74
2017-08-02T00:11:59.910Z,807.73
2017-08-02T00:12:04.273Z,807.75
2017-08-02T00:12:08.730Z,807.74
2017-08-02T00:12:13.076Z,807.69
2017-08-02T00:12:17.422Z,807.78
2017-08-02T00:12:21.892Z,807.74
2017-08-02T00:12:26.351Z,807.73
2017-08-02T00:12:30.463Z,807.77
2017-08-02T00:12:34.950Z,807.79
2017-08-02T00:12:39.288Z,807.7
2017-08-02T00:12:43.518Z,807.78
2017-08-02T00:12:48.014Z,807.81
2017-08-02T00:12:52.378Z,807.82
2017-08-02T00:12:56.831Z,807.78
2017-08-02T00:13:01.284Z,807.76
2017-08-02T00:13:05.767Z,807.79
2017-08-02T00:13:10.239Z,807.86
2017-08-02T00:13:14.703Z,807.87
2017-08-02T00:13:19.188Z,807.86
2017-08-02T00:13:23.539Z,807.88
2017-08-02T00:13:28.014Z,807.84
2017-08-02T00:13:32.475Z,807.91
2017-08-02T00:13:36.943Z,807.87
2017-08-02T00:13:41.409Z,807.89
2017-08-02T00:13:45.884Z,807.91
2017-08-02T00:13:50.220Z,807.91
2017-08-02T00:13:54.569Z,807.91
2017-08-02T00:13:59.027Z,807.93
2017-08-02T00:14:03.364Z,807.92
2017-08-02T00:14:07.839Z,807.94
2017-08-02T00:14:12.176Z,807.96
2017-08-02T00:14:16.652Z,807.97
2017-08-02T00:14:21.120Z,807.98
2017-08-02T00:14:25.460Z,807.98
2017-08-02T00:14:29.934Z,807.98
2017-08-02T00:14:34.407Z,808.01
2017-08-02T00:14:38.752Z,807.99
2017-08-02T00:14:43.208Z,808
2017-08-02T00:14:47.549Z,807.99
2017-08-02T00:14:52.010Z,808.02
2017-08-02T00:14:56.469Z,808.04
2017-08-02T00:15:00.825Z,807.98
2017-08-02T00:15:05.665Z,808.04
2017-08-02T00:15:10.119Z,808.05
2017-08-02T00:15:14.237Z,808.07
2017-08-02T00:15:18.482Z,808.04
2017-08-02T00:15:22.944Z,808.07
2017-08-02T00:15:27.296Z,808.07
2017-08-02T00:15:31.762Z,808.03
2017-08-02T00:15:36.110Z,808.04
2017-08-02T00:15:40.580Z,808.12
2017-08-02T00:15:45.047Z,808.12
2017-08-02T00:15:49.544Z,808.12
2017-08-02T00:15:53.907Z,808.13
2017-08-02T00:15:58.381Z,808.12
2017-08-02T00:16:02.599Z,808.14
2017-08-02T00:16:07.065Z,808.14
2017-08-02T00:16:11.545Z,808.13
2017-08-02T00:16:16.006Z,808.16
2017-08-02T00:16:20.247Z,808.18
2017-08-02T00:16:24.601Z,808.16
2017-08-02T00:16:28.945Z,808.17
2017-08-02T00:16:33.286Z,808.19
2017-08-02T00:16:37.642Z,808.2
2017-08-02T00:16:42.114Z,808.21
2017-08-02T00:16:46.587Z,808.23
2017-08-02T00:16:50.939Z,808.27
2017-08-02T00:16:55.426Z,808.25
2017-08-02T00:16:59.887Z,808.24
2017-08-02T00:17:04.238Z,808.25
2017-08-02T00:17:08.690Z,808.25
2017-08-02T00:17:13.137Z,808.26
2017-08-02T00:17:17.481Z,808.25
2017-08-02T00:17:21.947Z,808.29
2017-08-02T00:17:26.294Z,808.28
2017-08-02T00:17:30.641Z,808.27
2017-08-02T00:17:34.998Z,808.28
2017-08-02T00:17:39.339Z,808.31
2017-08-02T00:17:43.675Z,808.33
2017-08-02T00:17:48.016Z,808.31
2017-08-02T00:17:52.357Z,808.29
2017-08-02T00:17:56.837Z,808.3
2017-08-02T00:18:01.297Z,808.32
2017-08-02T00:18:05.654Z,808.32
2017-08-02T00:18:09.881Z,808.29
2017-08-02T00:18:14.343Z,808.29
2017-08-02T00:18:18.710Z,808.34
2017-08-02T00:18:23.086Z,808.36
2017-08-02T00:18:27.422Z,808.4
2017-08-02T00:18:31.891Z,808.36
2017-08-02T00:18:36.351Z,808.38
2017-08-02T00:18:40.708Z,808.37
2017-08-02T00:18:45.061Z,808.3
2017-08-02T00:18:49.516Z,808.36
2017-08-02T00:18:53.864Z,808.34
2017-08-02T00:18:58.342Z,808.39
2017-08-02T00:19:02.995Z,808.39
2017-08-02T00:19:07.450Z,808.4
2017-08-02T00:19:11.914Z,808.45
2017-08-02T00:19:16.388Z,808.42
2017-08-02T00:19:20.843Z,808.44
2017-08-02T00:19:25.061Z,808.37
2017-08-02T00:19:29.295Z,808.42
2017-08-02T00:19:33.747Z,808.44
2017-08-02T00:19:38.093Z,808.46
2017-08-02T00:19:42.451Z,808.44
2017-08-02T00:19:46.685Z,808.46
2017-08-02T00:19:51.040Z,808.46
2017-08-02T00:19:55.498Z,808.45
2017-08-02T00:19:59.849Z,808.48
2017-08-02T00:20:04.332Z,808.49
2017-08-02T00:20:08.686Z,808.48
2017-08-02T00:20:13.022Z,808.51
2017-08-02T00:20:17.510Z,808.5
2017-08-02T00:20:21.852Z,808.47
2017-08-02T00:20:26.318Z,808.5
2017-08-02T00:20:30.417Z,808.54
2017-08-02T00:20:34.759Z,808.51
2017-08-02T00:20:39.124Z,808.52
2017-08-02T00:20:43.588Z,808.53
2017-08-02T00:20:47.950Z,808.52
2017-08-02T00:20:52.188Z,808.53
2017-08-02T00:20:56.541Z,808.53
2017-08-02T00:21:00.767Z,808.5
2017-08-02T00:21:05.118Z,808.56
2017-08-02T00:21:09.581Z,808.55
2017-08-02T00:21:14.077Z,808.55
2017-08-02T00:21:18.531Z,808.55
2017-08-02T00:21:22.994Z,808.54
2017-08-02T00:21:27.339Z,808.55
2017-08-02T00:21:31.811Z,808.55
2017-08-02T00:21:36.273Z,808.55
2017-08-02T00:21:40.601Z,808.52
2017-08-02T00:21:45.100Z,808.54
2017-08-02T00:21:49.330Z,808.59
2017-08-02T00:21:53.548Z,808.55
2017-08-02T00:21:58.019Z,808.6
2017-08-02T00:22:02.513Z,808.59
2017-08-02T00:22:06.861Z,808.54
2017-08-02T00:22:11.204Z,808.57
2017-08-02T00:22:15.686Z,808.61
2017-08-02T00:22:20.164Z,808.6
2017-08-02T00:22:24.642Z,808.55
2017-08-02T00:22:29.095Z,808.58
2017-08-02T00:22:33.314Z,808.62
2017-08-02T00:22:37.787Z,808.61
2017-08-02T00:22:42.255Z,808.63
2017-08-02T00:22:46.606Z,808.66
2017-08-02T00:22:50.845Z,808.65
2017-08-02T00:22:55.188Z,808.65
2017-08-02T00:22:59.656Z,808.61
2017-08-02T00:23:03.649Z,808.61
2017-08-02T00:23:08.114Z,808.64
2017-08-02T00:23:12.596Z,808.65
2017-08-02T00:23:17.082Z,808.67
2017-08-02T00:23:21.432Z,808.64
2017-08-02T00:23:25.791Z,808.61
2017-08-02T00:23:30.143Z,808.66
2017-08-02T00:23:34.263Z,808.63
2017-08-02T00:23:38.717Z,808.61
2017-08-02T00:23:43.212Z,808.64
2017-08-02T00:23:47.451Z,808.68
2017-08-02T00:23:51.805Z,808.65
2017-08-02T00:23:56.274Z,808.68
2017-08-02T00:24:00.726Z,808.68
2017-08-02T00:24:05.198Z,808.65
2017-08-02T00:24:09.552Z,808.7
2017-08-02T00:24:14.027Z,808.66
2017-08-02T00:24:18.512Z,808.66
2017-08-02T00:24:22.846Z,808.68
2017-08-02T00:24:27.311Z,808.7
2017-08-02T00:24:31.776Z,808.68
2017-08-02T00:24:36.124Z,808.69
2017-08-02T00:24:40.495Z,808.61
2017-08-02T00:24:44.839Z,808.68
2017-08-02T00:24:49.068Z,808.7
2017-08-02T00:24:53.283Z,808.69
2017-08-02T00:24:57.755Z,808.7
2017-08-02T00:25:02.108Z,808.65
2017-08-02T00:25:06.459Z,808.69
2017-08-02T00:25:10.933Z,808.7
2017-08-02T00:25:15.269Z,808.7
2017-08-02T00:25:19.736Z,808.67
2017-08-02T00:25:24.186Z,808.68
2017-08-02T00:25:28.537Z,808.69
2017-08-02T00:25:32.745Z,808.66
2017-08-02T00:25:37.197Z,808.68
2017-08-02T00:25:41.658Z,808.67
2017-08-02T00:25:45.892Z,808.66
2017-08-02T00:25:50.240Z,808.67
2017-08-02T00:25:54.715Z,808.67
2017-08-02T00:25:59.172Z,808.63
2017-08-02T00:26:03.832Z,808.68
2017-08-02T00:26:08.296Z,808.66
2017-08-02T00:26:12.643Z,808.67
2017-08-02T00:26:17.105Z,808.66
2017-08-02T00:26:21.455Z,808.67
2017-08-02T00:26:25.802Z,808.66
2017-08-02T00:26:30.144Z,808.67
2017-08-02T00:26:34.608Z,808.68
2017-08-02T00:26:38.955Z,808.69
2017-08-02T00:26:43.190Z,808.66
2017-08-02T00:26:47.530Z,808.65
2017-08-02T00:26:51.891Z,808.63
2017-08-02T00:26:56.343Z,808.66
2017-08-02T00:27:00.685Z,808.68
2017-08-02T00:27:05.026Z,808.63
2017-08-02T00:27:09.480Z,808.66
2017-08-02T00:27:13.939Z,808.67
2017-08-02T00:27:18.418Z,808.66
2017-08-02T00:27:22.891Z,808.67
2017-08-02T00:27:27.136Z,808.66
2017-08-02T00:27:31.587Z,808.66
2017-08-02T00:27:36.049Z,808.66
2017-08-02T00:27:40.292Z,808.65
2017-08-02T00:27:44.653Z,808.65
2017-08-02T00:27:49.120Z,808.65
2017-08-02T00:27:53.596Z,808.65
2017-08-02T00:27:57.936Z,808.63
2017-08-02T00:28:02.366Z,808.64
2017-08-02T00:28:06.845Z,808.65
2017-08-02T00:28:11.207Z,808.66
2017-08-02T00:28:15.688Z,808.63
2017-08-02T00:28:20.169Z,808.63
2017-08-02T00:28:24.400Z,808.65
2017-08-02T00:28:28.872Z,808.61
2017-08-02T00:28:33.333Z,808.63
2017-08-02T00:28:37.557Z,808.67
2017-08-02T00:28:42.023Z,808.64
2017-08-02T00:28:46.471Z,808.68
2017-08-02T00:28:50.819Z,808.66
2017-08-02T00:28:55.272Z,808.65
2017-08-02T00:28:59.725Z,808.63
2017-08-02T00:29:04.191Z,808.62
2017-08-02T00:29:08.646Z,808.63
2017-08-02T00:29:12.997Z,808.6
2017-08-02T00:29:17.342Z,808.59
2017-08-02T00:29:21.697Z,808.6
2017-08-02T00:29:26.043Z,808.63
2017-08-02T00:29:30.505Z,808.64
2017-08-02T00:29:34.612Z,808.61
2017-08-02T00:29:38.953Z,808.6
2017-08-02T00:29:43.316Z,808.58
2017-08-02T00:29:47.782Z,808.61
2017-08-02T00:29:52.133Z,808.56
2017-08-02T00:29:56.485Z,808.56
2017-08-02T00:30:00.955Z,808.54
2017-08-02T00:30:05.314Z,808.55
2017-08-02T00:30:09.781Z,808.55
2017-08-02T00:30:14.252Z,808.61
2017-08-02T00:30:18.712Z,808.58
2017-08-02T00:30:23.187Z,808.51
2017-08-02T00:30:27.420Z,808.58
2017-08-02T00:30:31.786Z,808.58
2017-08-02T00:30:36.289Z,808.6
2017-08-02T00:30:40.755Z,808.57
2017-08-02T00:30:45.227Z,808.58
2017-08-02T00:30:49.577Z,808.6
2017-08-02T00:30:53.915Z,808.58
2017-08-02T00:30:58.267Z,808.58
2017-08-02T00:31:02.618Z,808.58
2017-08-02T00:31:07.081Z,808.59
2017-08-02T00:31:11.577Z,808.56
2017-08-02T00:31:15.803Z,808.56
2017-08-02T00:31:20.275Z,808.53
2017-08-02T00:31:24.764Z,808.57
2017-08-02T00:31:28.871Z,808.55
2017-08-02T00:31:33.338Z,808.54
2017-08-02T00:31:37.816Z,808.58
2017-08-02T00:31:42.300Z,808.51
2017-08-02T00:31:46.763Z,808.51
2017-08-02T00:31:50.993Z,808.53
2017-08-02T00:31:55.459Z,808.55
2017-08-02T00:31:59.924Z,808.55
2017-08-02T00:32:04.211Z,808.48
2017-08-02T00:32:08.546Z,808.5
2017-08-02T00:32:12.878Z,808.52
2017-08-02T00:32:17.352Z,808.45
2017-08-02T00:32:21.813Z,808.52
2017-08-02T00:32:26.274Z,808.53
2017-08-02T00:32:30.741Z,808.52
2017-08-02T00:32:35.194Z,808.47
2017-08-02T00:32:39.644Z,808.52
2017-08-02T00:32:44.099Z,808.44
2017-08-02T00:32:48.574Z,808.46
2017-08-02T00:32:53.041Z,808.53
2017-08-02T00:32:57.390Z,808.51
2017-08-02T00:33:01.627Z,808.51
2017-08-02T00:33:05.630Z,808.51
2017-08-02T00:33:10.098Z,808.49
2017-08-02T00:33:14.556Z,808.5
2017-08-02T00:33:19.033Z,808.5
2017-08-02T00:33:23.272Z,808.47
2017-08-02T00:33:27.737Z,808.47
2017-08-02T00:33:32.067Z,808.48
2017-08-02T00:33:36.529Z,808.48
2017-08-02T00:33:40.763Z,808.47
2017-08-02T00:33:44.986Z,808.45
2017-08-02T00:33:49.447Z,808.47
2017-08-02T00:33:53.564Z,808.48
2017-08-02T00:33:57.794Z,808.47
2017-08-02T00:34:02.228Z,808.41
2017-08-02T00:34:06.695Z,808.45
2017-08-02T00:34:11.159Z,808.46
2017-08-02T00:34:15.641Z,808.49
2017-08-02T00:34:19.983Z,808.48
2017-08-02T00:34:24.323Z,808.46
2017-08-02T00:34:28.787Z,808.45
2017-08-02T00:34:33.145Z,808.47
2017-08-02T00:34:37.617Z,808.46
2017-08-02T00:34:42.104Z,808.44
2017-08-02T00:34:46.572Z,808.41
2017-08-02T00:34:50.899Z,808.42
2017-08-02T00:34:55.108Z,808.37
2017-08-02T00:34:59.569Z,808.4
2017-08-02T00:35:03.812Z,808.41
2017-08-02T00:35:08.341Z,808.42
2017-08-02T00:35:12.804Z,808.38
2017-08-02T00:35:17.149Z,808.4
2017-08-02T00:35:21.386Z,808.43
2017-08-02T00:35:25.739Z,808.43
2017-08-02T00:35:30.197Z,808.38
2017-08-02T00:35:34.555Z,808.39
2017-08-02T00:35:39.012Z,808.38
2017-08-02T00:35:43.479Z,808.34
2017-08-02T00:35:47.928Z,808.35
2017-08-02T00:35:52.285Z,808.37
2017-08-02T00:35:56.764Z,808.37
2017-08-02T00:36:01.110Z,808.39
2017-08-02T00:36:05.441Z,808.3
2017-08-02T00:36:09.669Z,808.34
2017-08-02T00:36:13.890Z,808.32
2017-08-02T00:36:18.350Z,808.34
2017-08-02T00:36:22.793Z,808.35
2017-08-02T00:36:27.291Z,808.33
2017-08-02T00:36:31.650Z,808.32
2017-08-02T00:36:36.108Z,808.32
2017-08-02T00:36:40.336Z,808.32
2017-08-02T00:36:44.809Z,808.34
2017-08-02T00:36:49.143Z,808.32
2017-08-02T00:36:53.474Z,808.34
2017-08-02T00:36:57.921Z,808.29
2017-08-02T00:37:02.278Z,808.3
2017-08-02T00:37:06.624Z,808.29
2017-08-02T00:37:11.093Z,808.26
2017-08-02T00:37:15.319Z,808.32
2017-08-02T00:37:19.662Z,808.3
2017-08-02T00:37:24.017Z,808.28
2017-08-02T00:37:28.471Z,808.3
2017-08-02T00:37:32.944Z,808.28
2017-08-02T00:37:37.401Z,808.27
2017-08-02T00:37:41.754Z,808.29
2017-08-02T00:37:45.855Z,808.29
2017-08-02T00:37:50.337Z,808.28
2017-08-02T00:37:54.688Z,808.24
2017-08-02T00:37:59.042Z,808.3
2017-08-02T00:38:03.435Z,808.28
2017-08-02T00:38:07.893Z,808.25
2017-08-02T00:38:12.255Z,808.25
2017-08-02T00:38:16.707Z,808.25
2017-08-02T00:38:21.052Z,808.25
2017-08-02T00:38:25.516Z,808.27
2017-08-02T00:38:30.007Z,808.27
2017-08-02T00:38:34.342Z,808.23
2017-08-02T00:38:38.553Z,808.21
2017-08-02T00:38:43.030Z,808.25
2017-08-02T00:38:47.381Z,808.22
2017-08-02T00:38:51.489Z,808.22
2017-08-02T00:38:55.714Z,808.24
2017-08-02T00:39:00.064Z,808.24
2017-08-02T00:39:04.293Z,808.23
2017-08-02T00:39:08.767Z,808.25
2017-08-02T00:39:13.005Z,808.19
2017-08-02T00:39:17.335Z,808.21
2017-08-02T00:39:21.824Z,808.2
2017-08-02T00:39:26.291Z,808.24
2017-08-02T00:39:30.766Z,808.23
2017-08-02T00:39:35.106Z,808.25
2017-08-02T00:39:39.577Z,808.2
2017-08-02T00:39:43.916Z,808.22
2017-08-02T00:39:48.254Z,808.18
2017-08-02T00:39:52.364Z,808.2
2017-08-02T00:39:56.705Z,808.17
2017-08-02T00:40:01.174Z,808.23
2017-08-02T00:40:05.293Z,808.16
2017-08-02T00:40:09.530Z,808.2
2017-08-02T00:40:13.970Z,808.21
2017-08-02T00:40:18.330Z,808.15
2017-08-02T00:40:22.801Z,808.14
2017-08-02T00:40:27.524Z,808.18
2017-08-02T00:40:31.859Z,808.14
2017-08-02T00:40:36.308Z,808.15
2017-08-02T00:40:40.786Z,808.08
2017-08-02T00:40:45.169Z,808.11
2017-08-02T00:40:49.502Z,808.11
2017-08-02T00:40:53.966Z,808.14
2017-08-02T00:40:58.319Z,808.11
2017-08-02T00:41:02.565Z,808.14
2017-08-02T00:41:06.792Z,808.12
2017-08-02T00:41:11.251Z,808.1
2017-08-02T00:41:15.593Z,808.1
2017-08-02T00:41:20.055Z,808.04
2017-08-02T00:41:24.512Z,808.04
2017-08-02T00:41:28.857Z,808.09
2017-08-02T00:41:33.322Z,808.12
2017-08-02T00:41:37.665Z,808.09
2017-08-02T00:41:42.131Z,808.05
2017-08-02T00:41:46.593Z,808.11
2017-08-02T00:41:50.975Z,808.1
2017-08-02T00:41:55.323Z,808.08
2017-08-02T00:41:59.650Z,808.09
2017-08-02T00:42:04.033Z,808.1
2017-08-02T00:42:08.389Z,808.09
2017-08-02T00:42:12.866Z,808.1
2017-08-02T00:42:17.331Z,808.09
2017-08-02T00:42:21.677Z,808.11
2017-08-02T00:42:25.938Z,808.12
2017-08-02T00:42:30.403Z,808.08
2017-08-02T00:42:34.871Z,808.06
2017-08-02T00:42:39.205Z,808.04
2017-08-02T00:42:43.680Z,808.07
2017-08-02T00:42:48.133Z,808.08
2017-08-02T00:42:52.356Z,808.06
2017-08-02T00:42:56.699Z,808.08
2017-08-02T00:43:01.056Z,808.05
2017-08-02T00:43:05.701Z,808.03
2017-08-02T00:43:10.167Z,808.03
2017-08-02T00:43:14.642Z,808.05
2017-08-02T00:43:19.096Z,808.05
2017-08-02T00:43:23.567Z,808.06
2017-08-02T00:43:28.029Z,808.04
2017-08-02T00:43:32.494Z,808.01
2017-08-02T00:43:36.942Z,808.07
2017-08-02T00:43:41.146Z,808.05
2017-08-02T00:43:45.384Z,808.05
2017-08-02T00:43:49.845Z,808.04
2017-08-02T00:43:54.306Z,808.02
2017-08-02T00:43:58.793Z,808.04
2017-08-02T00:44:03.455Z,808.04
2017-08-02T00:44:07.956Z,808.05
2017-08-02T00:44:12.406Z,808.01
2017-08-02T00:44:16.744Z,808.05
2017-08-02T00:44:21.212Z,808
2017-08-02T00:44:25.679Z,808.04
2017-08-02T00:44:30.029Z,808
2017-08-02T00:44:34.384Z,807.99
2017-08-02T00:44:38.730Z,807.96
2017-08-02T00:44:43.073Z,808.02
2017-08-02T00:44:47.297Z,808.02
2017-08-02T00:44:51.641Z,808.01
2017-08-02T00:44:56.106Z,808.03
2017-08-02T00:45:00.473Z,808.01
2017-08-02T00:45:05.058Z,808.05
2017-08-02T00:45:09.578Z,808.02
2017-08-02T00:45:14.038Z,807.97
2017-08-02T00:45:18.480Z,808
2017-08-02T00:45:22.942Z,808.02
2017-08-02T00:45:27.283Z,808.02
2017-08-02T00:45:31.738Z,808.02
2017-08-02T00:45:36.201Z,807.97
2017-08-02T00:45:40.425Z,808
2017-08-02T00:45:44.769Z,808.02
2017-08-02T00:45:49.126Z,808.02
2017-08-02T00:45:53.247Z,807.99
2017-08-02T00:45:57.473Z,808.05
2017-08-02T00:46:01.809Z,808.03
2017-08-02T00:46:06.264Z,808.01
2017-08-02T00:46:10.705Z,808.03
2017-08-02T00:46:15.161Z,808.04
2017-08-02T00:46:19.523Z,808.05
2017-08-02T00:46:23.988Z,808.02
2017-08-02T00:46:28.320Z,808.02
2017-08-02T00:46:32.561Z,808.01
2017-08-02T00:46:37.030Z,808.03
2017-08-02T00:46:41.512Z,808.01
2017-08-02T00:46:45.973Z,808.03
2017-08-02T00:46:50.316Z,808.03
2017-08-02T00:46:54.552Z,808.01
2017-08-02T00:46:59.011Z,808.02
2017-08-02T00:47:03.470Z,808.01
2017-08-02T00:47:07.824Z,808
2017-08-02T00:47:12.302Z,808.01
2017-08-02T00:47:16.769Z,808.04
2017-08-02T00:47:21.244Z,808.02
2017-08-02T00:47:25.707Z,808.02
2017-08-02T00:47:30.181Z,808.01
2017-08-02T00:47:34.536Z,808.03
2017-08-02T00:47:38.872Z,808.02
2017-08-02T00:47:43.209Z,808.03
2017-08-02T00:47:47.558Z,808.03
2017-08-02T00:47:51.796Z,808.03
2017-08-02T00:47:56.256Z,808.02
2017-08-02T00:48:00.723Z,807.98
2017-08-02T00:48:05.250Z,808.02
2017-08-02T00:48:09.599Z,808
2017-08-02T00:48:14.055Z,808
2017-08-02T00:48:18.544Z,808.03
2017-08-02T00:48:22.907Z,808.03
2017-08-02T00:48:27.263Z,807.99
2017-08-02T00:48:31.722Z,808.02
2017-08-02T00:48:36.184Z,808
2017-08-02T00:48:40.544Z,807.97
2017-08-02T00:48:45.001Z,808
2017-08-02T00:48:49.222Z,807.96
2017-08-02T00:48:53.554Z,807.98
2017-08-02T00:48:57.915Z,808
2017-08-02T00:49:02.541Z,808
2017-08-02T00:49:06.874Z,808.01
2017-08-02T00:49:11.222Z,808
2017-08-02T00:49:15.565Z,808.02
2017-08-02T00:49:19.797Z,808.02
2017-08-02T00:49:24.131Z,808.02
2017-08-02T00:49:28.577Z,807.96
2017-08-02T00:49:32.797Z,808
2017-08-02T00:49:37.269Z,808.02
2017-08-02T00:49:41.720Z,807.95
2017-08-02T00:49:45.968Z,808
2017-08-02T00:49:50.426Z,808.02
2017-08-02T00:49:54.545Z,808
2017-08-02T00:49:59.018Z,808
2017-08-02T00:50:03.677Z,807.98
2017-08-02T00:50:07.798Z,807.96
2017-08-02T00:50:12.147Z,807.99
2017-08-02T00:50:16.608Z,807.95
2017-08-02T00:50:21.093Z,807.99
2017-08-02T00:50:25.440Z,807.99
2017-08-02T00:50:29.899Z,807.99
2017-08-02T00:50:34.132Z,807.92
2017-08-02T00:50:38.373Z,807.93
2017-08-02T00:50:42.478Z,808
2017-08-02T00:50:46.821Z,807.99
2017-08-02T00:50:51.165Z,807.96
2017-08-02T00:50:55.519Z,807.99
2017-08-02T00:50:59.859Z,808
2017-08-02T00:51:04.550Z,807.99
2017-08-02T00:51:08.769Z,807.97
2017-08-02T00:51:13.115Z,807.97
2017-08-02T00:51:17.567Z,807.97
2017-08-02T00:51:22.034Z,807.99
2017-08-02T00:51:26.493Z,807.96
2017-08-02T00:51:30.966Z,807.97
2017-08-02T00:51:35.198Z,807.96
2017-08-02T00:51:39.668Z,807.96
2017-08-02T00:51:44.007Z,807.96
2017-08-02T00:51:48.353Z,807.97
2017-08-02T00:51:52.817Z,807.98
2017-08-02T00:51:57.264Z,807.99
2017-08-02T00:52:01.862Z,807.97
2017-08-02T00:52:06.326Z,807.97
2017-08-02T00:52:10.548Z,807.94
2017-08-02T00:52:15.006Z,807.96
2017-08-02T00:52:19.371Z,807.95
2017-08-02T00:52:23.715Z,807.97
2017-08-02T00:52:27.943Z,807.98
2017-08-02T00:52:32.281Z,807.99
2017-08-02T00:52:36.737Z,807.97
2017-08-02T00:52:41.071Z,807.97
2017-08-02T00:52:45.533Z,807.98
2017-08-02T00:52:49.876Z,807.93
2017-08-02T00:52:54.228Z,807.95
2017-08-02T00:52:58.468Z,807.94
2017-08-02T00:53:03.062Z,807.93
2017-08-02T00:53:07.527Z,807.97
2017-08-02T00:53:11.751Z,807.97
2017-08-02T00:53:16.209Z,807.96
2017-08-02T00:53:20.665Z,807.97
2017-08-02T00:53:25.022Z,807.97
2017-08-02T00:53:29.512Z,807.92
2017-08-02T00:53:33.879Z,807.99
2017-08-02T00:53:38.330Z,807.98
2017-08-02T00:53:42.815Z,807.97
2017-08-02T00:53:47.173Z,807.99
2017-08-02T00:53:51.517Z,808.02
2017-08-02T00:53:55.988Z,807.98
2017-08-02T00:54:00.440Z,807.96
2017-08-02T00:54:04.923Z,807.97
2017-08-02T00:54:09.376Z,807.98
2017-08-02T00:54:13.721Z,808.02
2017-08-02T00:54:18.188Z,807.99
2017-08-02T00:54:22.652Z,807.99
2017-08-02T00:54:26.756Z,807.98
2017-08-02T00:54:31.195Z,807.98
2017-08-02T00:54:35.415Z,807.98
2017-08-02T00:54:39.878Z,808
2017-08-02T00:54:44.215Z,807.98
2017-08-02T00:54:48.551Z,808
2017-08-02T00:54:52.897Z,807.98
2017-08-02T00:54:57.237Z,807.98
2017-08-02T00:55:01.573Z,807.99
2017-08-02T00:55:05.914Z,807.95